createdAt,value
2023-05-20T00:02:03.814Z,15.96
2023-05-20T00:04:08.985Z,15.97
2023-05-20T00:06:14.129Z,15.95
2023-05-20T00:08:19.012Z,15.96
2023-05-20T00:10:24.108Z,15.97
2023-05-20T00:12:31.981Z,15.99
2023-05-20T00:14:36.932Z,15.96
2023-05-20T00:16:41.995Z,16.01
2023-05-20T00:18:47.039Z,16.06
2023-05-20T00:20:52.131Z,16.07
2023-05-20T00:22:57.040Z,16.10
2023-05-20T00:25:02.151Z,16.13
2023-05-20T00:27:07.547Z,16.14
2023-05-20T00:29:14.832Z,16.09
2023-05-20T00:31:19.851Z,16.05
2023-05-20T00:33:24.781Z,16.05
2023-05-20T00:35:29.891Z,16.05
2023-05-20T00:37:35.030Z,16.00
2023-05-20T00:39:40.342Z,15.98
2023-05-20T00:41:45.517Z,15.91
2023-05-20T00:43:50.234Z,15.85
2023-05-20T00:45:58.718Z,15.83
2023-05-20T00:48:04.406Z,15.84
2023-05-20T00:50:11.949Z,15.87
2023-05-20T00:52:18.553Z,15.86
2023-05-20T00:54:24.297Z,15.84
2023-05-20T00:56:30.007Z,15.87
2023-05-20T00:58:36.999Z,15.88
2023-05-20T01:00:43.223Z,15.91
2023-05-20T01:02:51.196Z,15.89
2023-05-20T01:04:57.030Z,15.90
2023-05-20T01:07:05.394Z,15.97
2023-05-20T01:09:10.548Z,15.92
2023-05-20T01:11:22.450Z,15.94
2023-05-20T01:13:34.161Z,15.90
2023-05-20T01:15:42.690Z,15.92
2023-05-20T01:17:54.594Z,15.95
2023-05-20T01:20:02.590Z,15.91
2023-05-20T01:22:12.717Z,15.89
2023-05-20T01:24:20.551Z,15.78
2023-05-20T01:26:27.370Z,15.78
2023-05-20T01:28:32.487Z,15.81
2023-05-20T01:30:44.580Z,15.79
2023-05-20T01:32:55.812Z,15.74
2023-05-20T01:35:02.402Z,15.79
2023-05-20T01:37:08.533Z,15.79
2023-05-20T01:39:14.097Z,15.76
2023-05-20T01:41:22.195Z,15.78
2023-05-20T01:43:28.885Z,15.79
2023-05-20T01:45:34.828Z,15.71
2023-05-20T01:47:40.321Z,15.75
2023-05-20T01:49:46.387Z,15.73
2023-05-20T01:51:51.493Z,15.71
2023-05-20T01:53:56.645Z,15.65
2023-05-20T01:56:01.359Z,15.66
2023-05-20T01:58:08.962Z,15.66
2023-05-20T02:00:15.628Z,15.69
2023-05-20T02:02:22.917Z,15.66
2023-05-20T02:04:28.101Z,15.63
2023-05-20T02:06:33.052Z,15.67
2023-05-20T02:08:38.023Z,15.65
2023-05-20T02:10:43.713Z,15.63
2023-05-20T02:12:50.798Z,15.55
2023-05-20T02:14:58.496Z,15.53
2023-05-20T02:17:03.793Z,15.54
2023-05-20T02:19:13.049Z,15.45
2023-05-20T02:21:18.254Z,15.47
2023-05-20T02:23:23.055Z,15.46
2023-05-20T02:25:28.020Z,15.40
2023-05-20T02:27:32.932Z,15.35
2023-05-20T02:29:37.916Z,15.33
2023-05-20T02:31:45.439Z,15.35
2023-05-20T02:33:50.457Z,15.40
2023-05-20T02:35:55.977Z,15.29
2023-05-20T02:38:00.975Z,15.31
2023-05-20T02:40:06.833Z,15.31
2023-05-20T02:42:11.849Z,15.25
2023-05-20T02:44:17.058Z,15.30
2023-05-20T02:46:22.204Z,15.26
2023-05-20T02:48:29.552Z,15.16
2023-05-20T02:50:34.564Z,15.12
2023-05-20T02:52:40.133Z,15.13
2023-05-20T02:54:45.560Z,15.11
2023-05-20T02:56:50.473Z,15.13
2023-05-20T02:58:55.776Z,15.14
2023-05-20T03:01:01.689Z,15.16
2023-05-20T03:03:07.408Z,15.19
2023-05-20T03:05:15.305Z,15.13
2023-05-20T03:07:21.834Z,15.10
2023-05-20T03:09:27.532Z,15.07
2023-05-20T03:11:32.242Z,15.03
2023-05-20T03:13:37.803Z,15.05
2023-05-20T03:15:42.974Z,15.09
2023-05-20T03:17:47.674Z,15.01
2023-05-20T03:19:52.728Z,14.98
2023-05-20T03:22:00.937Z,14.96
2023-05-20T03:24:06.508Z,15.01
2023-05-20T03:26:11.631Z,15.08
2023-05-20T03:28:17.611Z,15.08
2023-05-20T03:30:23.761Z,15.02
2023-05-20T03:32:29.339Z,15.00
2023-05-20T03:34:34.307Z,15.06
2023-05-20T03:36:39.504Z,15.07
2023-05-20T03:38:47.082Z,15.07
2023-05-20T03:40:52.113Z,15.05
2023-05-20T03:42:57.070Z,15.09
2023-05-20T03:45:03.323Z,15.06
2023-05-20T03:47:12.683Z,15.06
2023-05-20T03:49:17.759Z,15.12
2023-05-20T03:51:23.004Z,15.14
2023-05-20T03:53:29.159Z,15.15
2023-05-20T03:55:36.902Z,15.15
2023-05-20T03:57:42.687Z,15.18
2023-05-20T03:59:47.571Z,15.11
2023-05-20T04:01:52.532Z,15.15
2023-05-20T04:03:57.558Z,15.21
2023-05-20T04:06:03.041Z,15.19
2023-05-20T04:08:10.175Z,15.15
2023-05-20T04:10:15.436Z,15.16
2023-05-20T04:12:22.684Z,15.09
2023-05-20T04:14:27.711Z,15.03
2023-05-20T04:16:32.869Z,15.01
2023-05-20T04:18:39.478Z,15.02
2023-05-20T04:20:44.991Z,15.06
2023-05-20T04:22:52.552Z,15.03
2023-05-20T04:24:58.074Z,14.88
2023-05-20T04:27:03.067Z,14.91
2023-05-20T04:29:12.106Z,14.86
2023-05-20T04:31:17.401Z,14.85
2023-05-20T04:33:22.105Z,14.81
2023-05-20T04:35:28.333Z,14.78
2023-05-20T04:37:37.641Z,14.85
2023-05-20T04:39:48.495Z,14.96
2023-05-20T04:41:55.193Z,15.02
2023-05-20T04:44:01.709Z,15.11
2023-05-20T04:46:09.901Z,15.18
2023-05-20T04:48:15.189Z,15.23
2023-05-20T04:50:20.118Z,15.23
2023-05-20T04:52:25.177Z,15.19
2023-05-20T04:54:30.213Z,15.26
2023-05-20T04:56:36.757Z,15.37
2023-05-20T04:58:42.318Z,15.43
2023-05-20T05:00:48.081Z,15.36
2023-05-20T05:02:56.125Z,15.36
2023-05-20T05:05:01.501Z,15.44
2023-05-20T05:07:06.472Z,15.43
2023-05-20T05:09:11.400Z,15.43
2023-05-20T05:11:19.581Z,15.42
2023-05-20T05:13:24.576Z,15.47
2023-05-20T05:15:29.754Z,15.50
2023-05-20T05:17:34.770Z,15.50
2023-05-20T05:19:45.330Z,15.60
2023-05-20T05:21:51.509Z,15.80
2023-05-20T05:23:58.197Z,15.89
2023-05-20T05:26:03.682Z,16.07
2023-05-20T05:28:08.373Z,16.02
2023-05-20T05:30:14.227Z,16.02
2023-05-20T05:32:19.301Z,15.93
2023-05-20T05:34:24.115Z,15.93
2023-05-20T05:36:31.668Z,15.91
2023-05-20T05:38:36.937Z,15.89
2023-05-20T05:40:41.843Z,16.00
2023-05-20T05:42:47.408Z,16.01
2023-05-20T05:44:52.443Z,16.10
2023-05-20T05:46:58.765Z,16.18
2023-05-20T05:49:03.563Z,16.13
2023-05-20T05:51:08.751Z,16.09
2023-05-20T05:53:20.333Z,16.01
2023-05-20T05:55:27.175Z,16.06
2023-05-20T05:57:33.365Z,16.14
2023-05-20T05:59:39.786Z,16.22
2023-05-20T06:01:44.987Z,16.34
2023-05-20T06:03:49.963Z,16.48
2023-05-20T06:05:56.191Z,16.65
2023-05-20T06:08:01.678Z,16.75
2023-05-20T06:10:10.548Z,16.88
2023-05-20T06:12:15.539Z,16.99
2023-05-20T06:14:20.510Z,17.10
2023-05-20T06:16:25.557Z,17.19
2023-05-20T06:18:30.624Z,17.28
2023-05-20T06:20:39.539Z,17.29
2023-05-20T06:22:44.511Z,17.31
2023-05-20T06:24:50.578Z,17.23
2023-05-20T06:26:59.968Z,17.23
2023-05-20T06:29:05.302Z,17.11
2023-05-20T06:31:10.255Z,17.01
2023-05-20T06:33:18.112Z,17.02
2023-05-20T06:35:23.151Z,17.05
2023-05-20T06:37:28.670Z,17.05
2023-05-20T06:39:33.614Z,17.08
2023-05-20T06:41:38.968Z,17.03
2023-05-20T06:43:53.218Z,16.98
2023-05-20T06:46:17.392Z,17.04
2023-05-20T06:48:28.690Z,17.19
2023-05-20T06:50:33.515Z,17.23
2023-05-20T06:52:38.426Z,17.29
2023-05-20T06:54:43.390Z,17.36
2023-05-20T06:56:49.758Z,17.30
2023-05-20T06:58:58.072Z,17.31
2023-05-20T07:01:03.612Z,17.48
2023-05-20T07:03:09.470Z,17.51
2023-05-20T07:05:14.309Z,17.47
2023-05-20T07:07:19.313Z,17.54
2023-05-20T07:09:24.907Z,17.59
2023-05-20T07:11:29.711Z,17.64
2023-05-20T07:13:34.744Z,17.60
2023-05-20T07:15:42.483Z,17.55
2023-05-20T07:17:47.853Z,17.58
2023-05-20T07:19:53.222Z,17.70
2023-05-20T07:21:58.615Z,17.79
2023-05-20T07:24:19.395Z,17.96
2023-05-20T07:26:24.474Z,18.08
2023-05-20T07:28:29.535Z,18.16
2023-05-20T07:30:34.311Z,18.22
2023-05-20T07:33:03.804Z,18.39
2023-05-20T07:35:09.590Z,18.40
2023-05-20T07:37:16.175Z,18.42
2023-05-20T07:39:21.181Z,18.51
2023-05-20T07:41:26.714Z,18.53
2023-05-20T07:43:31.934Z,18.71
2023-05-20T07:45:38.015Z,18.78
2023-05-20T07:47:44.387Z,18.73
2023-05-20T07:49:51.802Z,18.71
2023-05-20T07:51:57.680Z,18.83
2023-05-20T07:54:02.468Z,18.80
2023-05-20T07:56:07.931Z,18.81
2023-05-20T07:58:13.016Z,18.86
2023-05-20T08:00:18.516Z,19.00
2023-05-20T08:02:23.619Z,19.04
2023-05-20T08:04:29.974Z,19.05
2023-05-20T08:06:38.763Z,19.19
2023-05-20T08:08:47.350Z,19.26
2023-05-20T08:10:58.024Z,19.17
2023-05-20T08:13:06.579Z,19.19
2023-05-20T08:15:12.487Z,19.15
2023-05-20T08:17:18.540Z,19.09
2023-05-20T08:19:23.669Z,19.05
2023-05-20T08:21:28.904Z,18.96
2023-05-20T08:23:38.931Z,18.97
2023-05-20T08:25:47.043Z,19.11
2023-05-20T08:27:52.666Z,19.27
2023-05-20T08:30:00.664Z,19.18
2023-05-20T08:32:06.687Z,19.38
2023-05-20T08:34:13.045Z,19.67
2023-05-20T08:36:19.635Z,19.85
2023-05-20T08:38:24.762Z,20.11
2023-05-20T08:40:32.463Z,20.29
2023-05-20T08:42:37.590Z,20.49
2023-05-20T08:44:44.183Z,20.58
2023-05-20T08:46:50.999Z,20.80
2023-05-20T08:48:57.285Z,20.92
2023-05-20T08:51:03.170Z,21.05
2023-05-20T08:53:29.841Z,20.97
2023-05-20T08:55:45.213Z,20.83
2023-05-20T08:57:50.421Z,20.77
2023-05-20T08:59:55.517Z,20.88
2023-05-20T09:02:01.513Z,20.87
2023-05-20T09:04:06.744Z,20.70
2023-05-20T09:06:13.768Z,20.47
2023-05-20T09:08:18.855Z,20.50
2023-05-20T09:10:23.518Z,20.43
2023-05-20T09:12:31.286Z,20.50
2023-05-20T09:14:36.274Z,20.73
2023-05-20T09:16:57.139Z,20.96
2023-05-20T09:19:02.328Z,20.94
2023-05-20T09:21:29.554Z,20.83
2023-05-20T09:23:43.275Z,20.96
2023-05-20T09:25:48.444Z,21.13
2023-05-20T09:27:56.044Z,21.31
2023-05-20T09:30:01.428Z,21.29
2023-05-20T09:32:08.355Z,21.39
2023-05-20T09:34:14.760Z,21.50
2023-05-20T09:36:19.848Z,21.56
2023-05-20T09:38:45.797Z,21.71
2023-05-20T09:40:52.729Z,21.92
2023-05-20T09:43:05.172Z,21.95
2023-05-20T09:45:11.803Z,22.02
2023-05-20T09:47:18.251Z,21.75
2023-05-20T09:49:24.918Z,21.73
2023-05-20T09:51:32.600Z,21.81
2023-05-20T09:53:37.802Z,21.98
2023-05-20T09:55:43.725Z,22.13
2023-05-20T09:57:49.671Z,22.14
2023-05-20T09:59:57.487Z,22.43
2023-05-20T10:02:03.253Z,22.56
2023-05-20T10:04:26.930Z,22.40
2023-05-20T10:06:46.464Z,22.33
2023-05-20T10:09:06.462Z,22.28
2023-05-20T10:14:06.074Z,22.20
2023-05-20T10:17:01.369Z,22.18
2023-05-20T10:19:20.547Z,22.26
2023-05-20T10:21:27.547Z,22.30
2023-05-20T10:23:34.079Z,22.36
2023-05-20T10:25:39.068Z,22.26
2023-05-20T10:27:48.330Z,22.22
2023-05-20T10:30:04.833Z,22.33
2023-05-20T10:32:20.217Z,22.48
2023-05-20T10:34:26.111Z,22.48
2023-05-20T10:37:06.932Z,22.44
2023-05-20T10:39:20.725Z,22.57
2023-05-20T10:41:28.260Z,22.66
2023-05-20T10:43:33.246Z,22.67
2023-05-20T10:45:38.489Z,22.59
2023-05-20T10:47:57.916Z,22.78
2023-05-20T10:50:05.085Z,22.93
2023-05-20T10:52:12.109Z,22.83
2023-05-20T10:54:17.983Z,22.84
2023-05-20T10:56:24.470Z,22.98
2023-05-20T10:58:29.872Z,22.96
2023-05-20T11:00:35.251Z,23.07
2023-05-20T11:02:42.208Z,23.13
2023-05-20T11:04:50.799Z,23.15
2023-05-20T11:06:56.303Z,23.23
2023-05-20T11:09:07.528Z,23.39
2023-05-20T11:11:13.886Z,23.48
2023-05-20T11:13:19.427Z,23.61
2023-05-20T11:15:25.457Z,23.63
2023-05-20T11:17:30.497Z,23.53
2023-05-20T11:19:35.562Z,23.53
2023-05-20T11:21:51.707Z,23.44
2023-05-20T11:23:56.861Z,23.28
2023-05-20T11:26:14.896Z,23.37
2023-05-20T11:28:20.228Z,23.30
2023-05-20T11:30:25.775Z,23.24
2023-05-20T11:32:30.938Z,23.17
2023-05-20T11:34:40.402Z,23.21
2023-05-20T11:36:48.327Z,23.17
2023-05-20T11:38:54.772Z,23.14
2023-05-20T11:41:00.782Z,23.22
2023-05-20T11:43:07.008Z,23.20
2023-05-20T11:45:16.644Z,23.23
2023-05-20T11:47:31.128Z,23.32
2023-05-20T11:49:42.798Z,23.29
2023-05-20T11:51:50.475Z,23.40
2023-05-20T11:53:55.638Z,23.46
2023-05-20T11:56:05.294Z,23.42
2023-05-20T11:58:10.325Z,23.38
2023-05-20T12:00:16.913Z,23.41
2023-05-20T12:02:24.550Z,23.54
2023-05-20T12:04:29.643Z,23.57
2023-05-20T12:06:34.560Z,23.65
2023-05-20T12:08:42.274Z,23.79
2023-05-20T12:14:12.008Z,23.66
2023-05-20T12:16:17.053Z,23.62
2023-05-20T12:18:21.926Z,23.56
2023-05-20T12:20:28.183Z,23.62
2023-05-20T12:22:33.212Z,23.72
2023-05-20T12:24:40.810Z,23.77
2023-05-20T12:26:45.784Z,23.90
2023-05-20T12:28:50.618Z,23.96
2023-05-20T12:30:58.248Z,24.15
2023-05-20T12:33:08.048Z,24.10
2023-05-20T12:35:14.379Z,24.14
2023-05-20T12:37:19.528Z,24.27
2023-05-20T12:39:24.484Z,24.22
2023-05-20T12:41:31.780Z,24.26
2023-05-20T12:43:38.238Z,24.17
2023-05-20T12:45:43.363Z,24.13
2023-05-20T12:47:48.833Z,24.19
2023-05-20T12:49:53.875Z,24.28
2023-05-20T12:52:01.453Z,24.30
2023-05-20T12:54:09.270Z,24.23
2023-05-20T12:56:14.210Z,24.33
2023-05-20T12:58:21.572Z,24.17
2023-05-20T13:00:26.876Z,24.28
2023-05-20T13:02:32.229Z,24.06
2023-05-20T13:04:37.208Z,23.97
2023-05-20T13:06:42.098Z,23.95
2023-05-20T13:08:48.266Z,24.09
2023-05-20T13:10:53.470Z,24.43
2023-05-20T13:12:59.792Z,24.70
2023-05-20T13:15:08.408Z,24.95
2023-05-20T13:17:14.371Z,25.04
2023-05-20T13:19:19.418Z,25.08
2023-05-20T13:21:24.166Z,25.07
2023-05-20T13:23:29.261Z,25.14
2023-05-20T13:25:34.145Z,24.85
2023-05-20T13:27:39.170Z,24.73
2023-05-20T13:29:44.864Z,24.83
2023-05-20T13:31:55.190Z,24.95
2023-05-20T13:34:00.965Z,24.93
2023-05-20T13:36:06.451Z,25.12
2023-05-20T13:38:11.473Z,25.00
2023-05-20T13:40:17.105Z,24.85
2023-05-20T13:42:22.009Z,24.83
2023-05-20T13:44:38.941Z,24.58
2023-05-20T13:46:44.082Z,24.43
2023-05-20T13:48:51.859Z,24.51
2023-05-20T13:50:56.773Z,24.56
2023-05-20T13:53:01.958Z,24.56
2023-05-20T13:55:06.987Z,24.58
2023-05-20T13:57:11.935Z,24.63
2023-05-20T13:59:19.526Z,24.44
2023-05-20T14:01:25.899Z,24.40
2023-05-20T14:03:30.901Z,24.44
2023-05-20T14:05:38.660Z,24.62
2023-05-20T14:07:43.635Z,24.69
2023-05-20T14:09:48.673Z,24.70
2023-05-20T14:11:53.998Z,24.75
2023-05-20T14:13:59.233Z,24.67
2023-05-20T14:16:04.225Z,24.67
2023-05-20T14:18:09.295Z,24.55
2023-05-20T14:20:14.454Z,24.59
2023-05-20T14:22:41.127Z,24.53
2023-05-20T14:24:46.121Z,24.55
2023-05-20T14:26:50.861Z,24.54
2023-05-20T14:28:55.903Z,24.59
2023-05-20T14:31:00.661Z,24.54
2023-05-20T14:33:06.015Z,24.65
2023-05-20T14:35:12.182Z,24.71
2023-05-20T14:37:17.434Z,24.83
2023-05-20T14:39:25.020Z,24.89
2023-05-20T14:41:30.116Z,24.88
2023-05-20T14:43:35.249Z,24.80
2023-05-20T14:45:40.425Z,24.73
2023-05-20T14:47:45.581Z,24.69
2023-05-20T14:49:51.002Z,24.71
2023-05-20T14:52:03.615Z,24.87
2023-05-20T14:54:09.406Z,25.08
2023-05-20T14:56:16.946Z,25.32
2023-05-20T14:58:21.871Z,25.51
2023-05-20T15:00:28.905Z,25.65
2023-05-20T15:02:34.023Z,25.73
2023-05-20T15:04:39.080Z,25.81
2023-05-20T15:06:43.836Z,25.95
2023-05-20T15:08:48.826Z,26.12
2023-05-20T15:10:55.205Z,26.19
2023-05-20T15:13:02.853Z,26.33
2023-05-20T15:15:08.988Z,26.64
2023-05-20T15:17:18.600Z,26.78
2023-05-20T15:19:23.571Z,26.67
2023-05-20T15:21:28.630Z,26.74
2023-05-20T15:23:33.594Z,26.72
2023-05-20T15:25:40.336Z,26.63
2023-05-20T15:27:45.735Z,26.66
2023-05-20T15:29:53.331Z,26.93
2023-05-20T15:32:00.878Z,27.17
2023-05-20T15:34:06.148Z,27.38
2023-05-20T15:36:11.236Z,27.50
2023-05-20T15:38:17.697Z,27.79
2023-05-20T15:40:22.863Z,27.46
2023-05-20T15:42:27.844Z,27.00
2023-05-20T15:44:32.913Z,26.69
2023-05-20T15:46:40.609Z,26.47
2023-05-20T15:48:48.615Z,26.40
2023-05-20T15:50:53.980Z,26.37
2023-05-20T15:52:59.459Z,26.45
2023-05-20T15:55:04.546Z,26.36
2023-05-20T15:57:34.817Z,26.33
2023-05-20T16:00:22.637Z,26.27
2023-05-20T16:02:35.977Z,26.32
2023-05-20T16:04:41.520Z,26.25
2023-05-20T16:06:46.469Z,26.23
2023-05-20T16:08:54.861Z,26.05
2023-05-20T16:11:00.007Z,25.94
2023-05-20T16:13:05.121Z,25.89
2023-05-20T16:15:14.742Z,25.78
2023-05-20T16:17:22.198Z,25.70
2023-05-20T16:19:31.839Z,25.62
2023-05-20T16:21:37.027Z,25.50
2023-05-20T16:23:44.618Z,25.53
2023-05-20T16:25:49.712Z,25.35
2023-05-20T16:27:54.483Z,25.19
2023-05-20T16:29:59.463Z,25.22
2023-05-20T16:32:04.635Z,25.10
2023-05-20T16:34:10.448Z,25.08
2023-05-20T16:36:18.072Z,25.02
2023-05-20T16:38:28.693Z,24.92
2023-05-20T16:40:33.812Z,24.90
2023-05-20T16:42:39.839Z,24.83
2023-05-20T16:44:44.856Z,24.77
2023-05-20T16:46:50.433Z,24.73
2023-05-20T16:48:57.452Z,24.70
2023-05-20T16:51:02.964Z,24.71
2023-05-20T16:53:10.639Z,24.70
2023-05-20T16:55:15.746Z,24.66
2023-05-20T16:57:20.708Z,24.64
2023-05-20T16:59:28.681Z,24.54
2023-05-20T17:01:33.761Z,24.52
2023-05-20T17:03:39.483Z,24.51
2023-05-20T17:05:44.441Z,24.53
2023-05-20T17:07:53.540Z,24.44
2023-05-20T17:10:01.217Z,24.47
2023-05-20T17:12:18.546Z,24.47
2023-05-20T17:14:26.368Z,24.38
2023-05-20T17:16:33.864Z,24.39
2023-05-20T17:18:46.409Z,24.38
2023-05-20T17:20:52.829Z,24.26
2023-05-20T17:22:57.762Z,24.15
2023-05-20T17:25:09.190Z,24.02
2023-05-20T17:27:17.576Z,24.03
2023-05-20T17:29:22.640Z,23.98
2023-05-20T17:31:27.319Z,23.89
2023-05-20T17:33:32.464Z,23.90
2023-05-20T17:35:37.774Z,23.89
2023-05-20T17:37:42.785Z,23.90
2023-05-20T17:39:47.762Z,23.95
2023-05-20T17:41:52.484Z,23.83
2023-05-20T17:44:01.713Z,23.81
2023-05-20T17:46:07.144Z,23.82
2023-05-20T17:48:12.630Z,23.76
2023-05-20T17:50:17.734Z,23.77
2023-05-20T17:52:35.601Z,23.75
2023-05-20T17:54:44.348Z,23.73
2023-05-20T17:56:58.951Z,23.71
2023-05-20T17:59:11.763Z,23.71
2023-05-20T18:01:17.721Z,23.62
2023-05-20T18:03:23.345Z,23.56
2023-05-20T18:05:28.879Z,23.56
2023-05-20T18:07:33.848Z,23.58
2023-05-20T18:09:39.616Z,23.49
2023-05-20T18:11:47.586Z,23.49
2023-05-20T18:13:52.658Z,23.48
2023-05-20T18:16:00.001Z,23.33
2023-05-20T18:18:05.051Z,23.25
2023-05-20T18:20:10.561Z,23.17
2023-05-20T18:22:15.466Z,23.21
2023-05-20T18:24:20.799Z,23.17
2023-05-20T18:26:26.649Z,23.14
2023-05-20T18:28:33.447Z,23.12
2023-05-20T18:30:39.947Z,23.10
2023-05-20T18:32:47.637Z,23.08
2023-05-20T18:34:58.639Z,23.07
2023-05-20T18:37:04.128Z,22.99
2023-05-20T18:39:11.932Z,22.96
2023-05-20T18:41:16.851Z,22.91
2023-05-20T18:43:21.980Z,22.89
2023-05-20T18:45:32.547Z,22.83
2023-05-20T18:47:37.636Z,22.80
2023-05-20T18:49:53.342Z,22.76
2023-05-20T18:52:02.324Z,22.69
2023-05-20T18:54:07.526Z,22.62
2023-05-20T18:56:35.765Z,22.57
2023-05-20T18:58:43.044Z,22.50
2023-05-20T19:00:51.085Z,22.45
2023-05-20T19:02:58.241Z,22.43
2023-05-20T19:05:05.961Z,22.33
2023-05-20T19:07:15.140Z,22.35
2023-05-20T19:09:24.805Z,22.30
2023-05-20T19:11:32.268Z,22.24
2023-05-20T19:13:37.286Z,22.19
2023-05-20T19:16:01.158Z,22.17
2023-05-20T19:18:06.417Z,22.14
2023-05-20T19:20:16.812Z,22.10
2023-05-20T19:24:58.380Z,22.01
2023-05-20T19:27:05.311Z,21.96
2023-05-20T19:29:10.488Z,21.92
2023-05-20T19:31:21.165Z,21.85
2023-05-20T19:33:26.557Z,21.79
2023-05-20T19:35:34.644Z,21.77
2023-05-20T19:37:40.081Z,21.73
2023-05-20T19:39:45.102Z,21.74
2023-05-20T19:41:50.229Z,21.73
2023-05-20T19:43:55.315Z,21.68
2023-05-20T19:46:00.187Z,21.60
2023-05-20T19:48:06.360Z,21.60
2023-05-20T19:50:14.879Z,21.56
2023-05-20T19:52:22.643Z,21.53
2023-05-20T19:57:09.904Z,21.45
2023-05-20T19:59:13.325Z,21.46
2023-05-20T20:01:18.832Z,21.46
2023-05-20T20:03:23.966Z,21.46
2023-05-20T20:05:28.705Z,21.34
2023-05-20T20:07:36.637Z,21.35
2023-05-20T20:09:41.568Z,21.33
2023-05-20T20:11:46.500Z,21.30
2023-05-20T20:13:51.734Z,21.28
2023-05-20T20:15:56.806Z,21.25
2023-05-20T20:18:01.896Z,21.20
2023-05-20T20:20:10.413Z,21.21
2023-05-20T20:22:15.762Z,21.16
2023-05-20T20:24:37.412Z,21.18
2023-05-20T20:26:42.412Z,21.17
2023-05-20T20:28:47.187Z,21.10
2023-05-20T20:30:52.411Z,21.11
2023-05-20T20:32:57.636Z,21.08
2023-05-20T20:35:02.305Z,21.00
2023-05-20T20:37:07.597Z,20.98
2023-05-20T20:39:19.297Z,20.99
2023-05-20T20:41:27.499Z,20.96
2023-05-20T20:43:34.862Z,20.96
2023-05-20T20:45:40.281Z,20.93
2023-05-20T20:47:46.521Z,20.91
2023-05-20T20:49:51.545Z,20.91
2023-05-20T20:51:56.560Z,20.89
2023-05-20T20:54:01.733Z,20.90
2023-05-20T20:56:07.162Z,20.89
2023-05-20T20:58:17.540Z,20.90
2023-05-20T21:00:24.595Z,20.87
2023-05-20T21:02:29.562Z,20.90
2023-05-20T21:04:34.963Z,20.87
2023-05-20T21:06:46.113Z,20.89
2023-05-20T21:08:51.018Z,20.87
2023-05-20T21:10:59.439Z,20.82
2023-05-20T21:13:04.609Z,20.79
2023-05-20T21:15:13.051Z,20.75
2023-05-20T21:17:18.133Z,20.70
2023-05-20T21:19:28.080Z,20.73
2023-05-20T21:21:33.288Z,20.71
2023-05-20T21:23:38.073Z,20.63
2023-05-20T21:25:43.006Z,20.63
2023-05-20T21:27:47.953Z,20.62
2023-05-20T21:29:52.965Z,20.60
2023-05-20T21:32:00.243Z,20.55
2023-05-20T21:34:08.109Z,20.57
2023-05-20T21:36:12.795Z,20.53
2023-05-20T21:38:17.836Z,20.50
2023-05-20T21:40:23.040Z,20.49
2023-05-20T21:42:27.782Z,20.49
2023-05-20T21:44:32.925Z,20.49
2023-05-20T21:46:37.737Z,20.44
2023-05-20T21:48:45.326Z,20.43
2023-05-20T21:50:50.426Z,20.46
2023-05-20T21:52:55.130Z,20.38
2023-05-20T21:55:00.044Z,20.35
2023-05-20T21:57:05.514Z,20.34
2023-05-20T21:59:10.428Z,20.35
2023-05-20T22:01:15.383Z,20.37
2023-05-20T22:03:20.408Z,20.32
2023-05-20T22:05:27.789Z,20.25
2023-05-20T22:07:33.190Z,20.21
2023-05-20T22:09:38.357Z,20.24
2023-05-20T22:11:45.354Z,20.23
2023-05-20T22:13:52.971Z,20.24
2023-05-20T22:15:58.315Z,20.22
2023-05-20T22:18:07.658Z,20.18
2023-05-20T22:20:34.126Z,20.18
2023-05-20T22:22:39.393Z,20.11
2023-05-20T22:24:46.851Z,20.11
2023-05-20T22:26:51.918Z,20.04
2023-05-20T22:28:56.638Z,19.97
2023-05-20T22:31:01.694Z,19.97
2023-05-20T22:33:06.538Z,19.93
2023-05-20T22:35:13.449Z,19.87
2023-05-20T22:37:21.039Z,19.86
2023-05-20T22:39:26.012Z,19.87
2023-05-20T22:41:31.073Z,19.87
2023-05-20T22:43:36.765Z,19.83
2023-05-20T22:45:41.895Z,19.83
2023-05-20T22:47:46.726Z,19.81
2023-05-20T22:49:51.801Z,19.83
2023-05-20T22:51:56.928Z,19.84
2023-05-20T22:54:04.465Z,19.87
2023-05-20T22:56:11.760Z,19.86
2023-05-20T22:58:19.447Z,19.86
2023-05-20T23:00:24.950Z,19.87
2023-05-20T23:02:30.733Z,19.87
2023-05-20T23:04:35.797Z,19.85
2023-05-20T23:06:40.542Z,19.82
2023-05-20T23:08:45.649Z,19.80
2023-05-20T23:10:52.950Z,19.75
2023-05-20T23:12:57.882Z,19.72
2023-05-20T23:15:02.880Z,19.71
2023-05-20T23:17:08.082Z,19.71
2023-05-20T23:19:13.142Z,19.66
2023-05-20T23:21:17.851Z,19.59
2023-05-20T23:23:30.385Z,19.62
2023-05-20T23:25:37.062Z,19.60
2023-05-20T23:27:44.746Z,19.60
2023-05-20T23:29:49.785Z,19.61
2023-05-20T23:31:54.665Z,19.61
2023-05-20T23:34:00.091Z,19.61
2023-05-20T23:36:05.034Z,19.63
2023-05-20T23:38:10.360Z,19.61
2023-05-20T23:40:16.497Z,19.56
2023-05-20T23:42:21.578Z,19.56
2023-05-20T23:44:29.274Z,19.60
2023-05-20T23:46:34.629Z,19.58
2023-05-20T23:48:39.774Z,19.59
2023-05-20T23:50:44.489Z,19.53
2023-05-20T23:52:49.574Z,19.57
2023-05-20T23:54:56.481Z,19.61
2023-05-20T23:57:01.466Z,19.62
2023-05-20T23:59:06.733Z,19.58
